Time,TemperatureF,DewpointF,PressureIn,WindDirection,WindDirectionDegrees,WindSpeedMPH,WindSpeedGustMPH,Humidity,HourlyPrecipIn,Conditions,Clouds,dailyrainin,SolarRadiationWatts/m^2,SoftwareType,DateUTC
2013-04-24 00:01:00,48.0,48.0,29.71,ESE,104,2.0,4.0,100,0.00,,,0.01,0.000000,,2013-04-24 04:01:00,
2013-04-24 00:03:00,48.0,48.0,29.71,ESE,104,2.0,4.0,100,0.00,,,0.01,0.000000,,2013-04-24 04:03:00,
2013-04-24 00:12:00,48.0,48.0,29.71,ESE,104,2.0,4.0,100,0.00,,,0.01,0.000000,,2013-04-24 04:12:00,
2013-04-24 00:43:00,51.0,51.0,29.72,West,259,2.0,4.0,99,0.00,,,0.01,0.000000,,2013-04-24 04:43:00,
2013-04-24 00:53:00,51.0,51.0,29.72,West,259,2.0,4.0,99,0.00,,,0.01,0.000000,,2013-04-24 04:53:00,
2013-04-24 01:02:00,51.0,51.0,29.72,West,259,2.0,4.0,99,0.00,,,0.01,0.000000,,2013-04-24 05:02:00,
2013-04-24 01:13:00,51.0,51.0,29.72,West,259,2.0,4.0,99,0.00,,,0.01,0.000000,,2013-04-24 05:13:00,
2013-04-24 01:42:00,51.0,50.0,29.71,SSW,213,1.0,5.0,97,0.00,,,0.01,0.000000,,2013-04-24 05:42:00,
2013-04-24 01:52:00,51.0,50.0,29.71,SSW,213,1.0,5.0,97,0.00,,,0.01,0.000000,,2013-04-24 05:52:00,
2013-04-24 02:02:00,51.0,50.0,29.71,SSW,213,1.0,5.0,97,0.00,,,0.01,0.000000,,2013-04-24 06:02:00,
2013-04-24 02:12:00,51.0,50.0,29.71,SSW,213,1.0,5.0,97,0.00,,,0.01,0.000000,,2013-04-24 06:12:00,
2013-04-24 02:42:00,48.0,48.0,29.70,WNW,293,2.0,3.0,100,0.00,,,0.01,0.000000,,2013-04-24 06:42:00,
2013-04-24 02:52:00,48.0,48.0,29.70,WNW,293,2.0,3.0,100,0.00,,,0.01,0.000000,,2013-04-24 06:52:00,
2013-04-24 03:02:00,48.0,48.0,29.70,WNW,293,2.0,3.0,100,0.00,,,0.01,0.000000,,2013-04-24 07:02:00,
2013-04-24 03:11:00,48.0,48.0,29.70,WNW,293,2.0,3.0,100,0.00,,,0.01,0.000000,,2013-04-24 07:11:00,
2013-04-24 03:42:00,48.0,48.0,29.68,NNE,30,1.0,3.0,100,0.00,,,0.01,0.000000,,2013-04-24 07:42:00,
2013-04-24 03:52:00,48.0,48.0,29.68,NNE,30,1.0,3.0,100,0.00,,,0.01,0.000000,,2013-04-24 07:52:00,
2013-04-24 04:02:00,48.0,48.0,29.68,NNE,30,1.0,3.0,100,0.00,,,0.01,0.000000,,2013-04-24 08:02:00,
2013-04-24 04:12:00,48.0,48.0,29.68,NNE,30,1.0,3.0,100,0.00,,,0.01,0.000000,,2013-04-24 08:12:00,
2013-04-24 04:42:00,46.0,46.0,29.68,NNW,337,1.0,2.0,100,0.00,,,0.00,0.000000,,2013-04-24 08:42:00,
2013-04-24 04:52:00,46.0,46.0,29.68,NNW,337,1.0,2.0,100,0.00,,,0.00,0.000000,,2013-04-24 08:52:00,
2013-04-24 05:02:00,46.0,46.0,29.68,NNW,337,1.0,2.0,100,0.00,,,0.00,0.000000,,2013-04-24 09:02:00,
2013-04-24 05:11:00,46.0,46.0,29.68,NNW,337,1.0,2.0,100,0.00,,,0.00,0.000000,,2013-04-24 09:11:00,
2013-04-24 05:42:00,45.0,45.0,29.68,NE,51,1.0,2.0,100,0.00,,,0.00,0.000000,,2013-04-24 09:42:00,
2013-04-24 05:53:00,45.0,45.0,29.68,NE,51,1.0,2.0,100,0.00,,,0.00,0.000000,,2013-04-24 09:53:00,
2013-04-24 06:02:00,45.0,45.0,29.68,NE,51,1.0,2.0,100,0.00,,,0.00,0.000000,,2013-04-24 10:02:00,
2013-04-24 06:12:00,45.0,45.0,29.68,NE,51,1.0,2.0,100,0.00,,,0.00,0.000000,,2013-04-24 10:12:00,
2013-04-24 06:42:00,46.0,46.0,29.70,North,2,0.0,3.0,100,0.00,,,0.00,0.000000,,2013-04-24 10:42:00,
2013-04-24 06:53:00,46.0,46.0,29.70,North,2,0.0,3.0,100,0.00,,,0.00,0.000000,,2013-04-24 10:53:00,
2013-04-24 07:03:00,46.0,46.0,29.70,North,2,0.0,3.0,100,0.00,,,0.00,0.000000,,2013-04-24 11:03:00,
2013-04-24 07:12:00,46.0,46.0,29.70,North,2,0.0,3.0,100,0.00,,,0.00,0.000000,,2013-04-24 11:12:00,
2013-04-24 07:43:00,46.0,46.0,29.71,ESE,109,1.0,4.0,100,0.00,,,0.00,20.000000,,2013-04-24 11:43:00,
2013-04-24 07:53:00,46.0,46.0,29.71,ESE,109,1.0,4.0,100,0.00,,,0.00,20.000000,,2013-04-24 11:53:00,
2013-04-24 08:02:00,46.0,46.0,29.71,ESE,109,1.0,4.0,100,0.00,,,0.00,20.000000,,2013-04-24 12:02:00,
2013-04-24 08:12:00,46.0,46.0,29.71,ESE,109,1.0,4.0,100,0.00,,,0.00,20.000000,,2013-04-24 12:12:00,
2013-04-24 08:42:00,53.0,53.0,29.72,SSW,211,4.0,7.0,100,0.00,,,0.00,163.000000,,2013-04-24 12:42:00,
2013-04-24 08:52:00,53.0,53.0,29.72,SSW,211,4.0,7.0,100,0.00,,,0.00,163.000000,,2013-04-24 12:52:00,
2013-04-24 09:01:00,53.0,53.0,29.72,SSW,211,4.0,7.0,100,0.00,,,0.00,163.000000,,2013-04-24 13:01:00,
2013-04-24 09:12:00,53.0,53.0,29.72,SSW,211,4.0,7.0,100,0.00,,,0.00,163.000000,,2013-04-24 13:12:00,
2013-04-24 10:42:00,64.0,54.0,29.71,South,183,8.0,15.0,69,-99.99,,,0.00,567.000000,,2013-04-24 14:42:00,
2013-04-24 10:52:00,64.0,54.0,29.71,South,183,8.0,15.0,69,-99.99,,,0.00,567.000000,,2013-04-24 14:52:00,
2013-04-24 11:01:00,64.0,54.0,29.71,South,183,8.0,15.0,69,-99.99,,,0.00,567.000000,,2013-04-24 15:01:00,
2013-04-24 11:11:00,64.0,54.0,29.71,South,183,8.0,15.0,69,-99.99,,,0.00,567.000000,,2013-04-24 15:11:00,
2013-04-24 11:43:00,66.0,54.0,29.69,SSW,206,7.0,16.0,65,0.00,,,0.00,721.000000,,2013-04-24 15:43:00,
2013-04-24 11:53:00,66.0,54.0,29.69,SSW,206,7.0,16.0,65,0.00,,,0.00,721.000000,,2013-04-24 15:53:00,
2013-04-24 12:03:00,66.0,54.0,29.69,SSW,206,7.0,16.0,65,0.00,,,0.00,721.000000,,2013-04-24 16:03:00,
2013-04-24 12:12:00,66.0,54.0,29.69,SSW,206,7.0,16.0,65,0.00,,,0.00,721.000000,,2013-04-24 16:12:00,
2013-04-24 12:42:00,71.0,55.0,29.66,SSW,195,9.0,19.0,57,0.00,,,0.00,780.000000,,2013-04-24 16:42:00,
2013-04-24 12:53:00,71.0,55.0,29.66,SSW,195,9.0,19.0,57,0.00,,,0.00,780.000000,,2013-04-24 16:53:00,
2013-04-24 13:02:00,71.0,55.0,29.66,SSW,195,9.0,19.0,57,0.00,,,0.00,780.000000,,2013-04-24 17:02:00,
2013-04-24 13:12:00,71.0,55.0,29.66,SSW,195,9.0,19.0,57,0.00,,,0.00,780.000000,,2013-04-24 17:12:00,
2013-04-24 13:42:00,74.0,54.0,29.65,SW,223,11.0,24.0,49,0.00,,,0.00,598.000000,,2013-04-24 17:42:00,
2013-04-24 13:52:00,74.0,54.0,29.65,SW,223,11.0,24.0,49,0.00,,,0.00,598.000000,,2013-04-24 17:52:00,
2013-04-24 14:02:00,74.0,54.0,29.65,SW,223,11.0,24.0,49,0.00,,,0.00,598.000000,,2013-04-24 18:02:00,
2013-04-24 14:12:00,74.0,54.0,29.65,SW,223,11.0,24.0,49,0.00,,,0.00,598.000000,,2013-04-24 18:12:00,
2013-04-24 14:43:00,75.0,53.0,29.64,SW,223,11.0,24.0,46,0.00,,,0.00,417.000000,,2013-04-24 18:43:00,
2013-04-24 14:52:00,75.0,53.0,29.64,SW,223,11.0,24.0,46,0.00,,,0.00,417.000000,,2013-04-24 18:52:00,
2013-04-24 15:02:00,75.0,53.0,29.64,SW,223,11.0,24.0,46,0.00,,,0.00,417.000000,,2013-04-24 19:02:00,
2013-04-24 15:12:00,75.0,53.0,29.64,SW,223,11.0,24.0,46,0.00,,,0.00,417.000000,,2013-04-24 19:12:00,
2013-04-24 15:42:00,74.0,51.0,29.61,SW,231,10.0,26.0,45,0.00,,,0.00,688.000000,,2013-04-24 19:42:00,
2013-04-24 15:52:00,74.0,51.0,29.61,SW,231,10.0,26.0,45,0.00,,,0.00,688.000000,,2013-04-24 19:52:00,
2013-04-24 16:02:00,74.0,51.0,29.61,SW,231,10.0,26.0,45,0.00,,,0.00,688.000000,,2013-04-24 20:02:00,
2013-04-24 16:11:00,74.0,51.0,29.61,SW,231,10.0,26.0,45,0.00,,,0.00,688.000000,,2013-04-24 20:11:00,
2013-04-24 16:42:00,76.0,54.0,29.60,SSW,210,9.0,30.0,46,0.00,,,0.00,541.000000,,2013-04-24 20:42:00,
2013-04-24 16:52:00,76.0,54.0,29.60,SSW,210,9.0,30.0,46,0.00,,,0.00,541.000000,,2013-04-24 20:52:00,
2013-04-24 17:02:00,76.0,54.0,29.60,SSW,210,9.0,30.0,46,0.00,,,0.00,541.000000,,2013-04-24 21:02:00,
2013-04-24 17:12:00,76.0,54.0,29.60,SSW,210,9.0,30.0,46,0.00,,,0.00,541.000000,,2013-04-24 21:12:00,
2013-04-24 17:43:00,76.0,53.0,29.57,SW,221,12.0,24.0,45,0.00,,,0.00,390.000000,,2013-04-24 21:43:00,
2013-04-24 17:53:00,76.0,53.0,29.57,SW,221,12.0,24.0,45,0.00,,,0.00,390.000000,,2013-04-24 21:53:00,
2013-04-24 18:03:00,76.0,53.0,29.57,SW,221,12.0,24.0,45,0.00,,,0.00,390.000000,,2013-04-24 22:03:00,
2013-04-24 18:12:00,76.0,53.0,29.57,SW,221,12.0,24.0,45,0.00,,,0.00,390.000000,,2013-04-24 22:12:00,
2013-04-24 18:42:00,74.0,52.0,29.56,SW,220,7.0,26.0,46,0.00,,,0.00,253.000000,,2013-04-24 22:42:00,
2013-04-24 18:52:00,74.0,52.0,29.56,SW,220,7.0,26.0,46,0.00,,,0.00,253.000000,,2013-04-24 22:52:00,
2013-04-24 19:02:00,74.0,52.0,29.56,SW,220,7.0,26.0,46,0.00,,,0.00,253.000000,,2013-04-24 23:02:00,
2013-04-24 19:12:00,74.0,52.0,29.56,SW,220,7.0,26.0,46,0.00,,,0.00,253.000000,,2013-04-24 23:12:00,
2013-04-24 19:42:00,72.0,52.0,29.57,SW,225,6.0,22.0,49,0.00,,,0.00,139.000000,,2013-04-24 23:42:00,
2013-04-24 19:52:00,72.0,52.0,29.57,SW,225,6.0,22.0,49,0.00,,,0.00,139.000000,,2013-04-24 23:52:00,
2013-04-24 20:02:00,72.0,52.0,29.57,SW,225,6.0,22.0,49,0.00,,,0.00,139.000000,,2013-04-25 00:02:00,
2013-04-24 20:12:00,72.0,52.0,29.57,SW,225,6.0,22.0,49,0.00,,,0.00,139.000000,,2013-04-25 00:12:00,
2013-04-24 20:42:00,70.0,53.0,29.58,SW,226,6.0,13.0,54,0.00,,,0.00,14.000000,,2013-04-25 00:42:00,
2013-04-24 20:52:00,70.0,53.0,29.58,SW,226,6.0,13.0,54,0.00,,,0.00,14.000000,,2013-04-25 00:52:00,
2013-04-24 21:02:00,70.0,53.0,29.58,SW,226,6.0,13.0,54,0.00,,,0.00,14.000000,,2013-04-25 01:02:00,
2013-04-24 21:11:00,70.0,53.0,29.58,SW,226,6.0,13.0,54,0.00,,,0.00,14.000000,,2013-04-25 01:11:00,
2013-04-24 21:42:00,68.0,52.0,29.60,SW,227,3.0,12.0,57,0.00,,,0.00,0.000000,,2013-04-25 01:42:00,
2013-04-24 21:53:00,68.0,52.0,29.60,SW,227,3.0,12.0,57,0.00,,,0.00,0.000000,,2013-04-25 01:53:00,
2013-04-24 22:02:00,68.0,52.0,29.60,SW,227,3.0,12.0,57,0.00,,,0.00,0.000000,,2013-04-25 02:02:00,
2013-04-24 22:11:00,68.0,52.0,29.60,SW,227,3.0,12.0,57,0.00,,,0.00,0.000000,,2013-04-25 02:11:00,
2013-04-24 23:02:00,65.0,53.0,29.61,SW,228,2.0,9.0,66,0.00,,,0.00,0.000000,,2013-04-25 03:02:00,
2013-04-24 23:11:00,65.0,53.0,29.61,SW,228,2.0,9.0,66,0.00,,,0.00,0.000000,,2013-04-25 03:11:00,
2013-04-24 23:43:00,63.0,55.0,29.59,WSW,245,3.0,7.0,74,0.00,,,0.00,0.000000,,2013-04-25 03:43:00,
2013-04-24 23:52:00,63.0,55.0,29.59,WSW,245,3.0,7.0,74,0.00,,,0.00,0.000000,,2013-04-25 03:52:00,